Terminal Aerodrome Forecast
Issued by NWS

Home | Current Version | Previous Version | Text Only | Print | Product List | Glossary On
Versions: 1 2 3 4 5 6 7 8 9 10 11 12 13 14 15 16 17 18 19 20 21
980
FTUS41 KPBZ 041739
TAFZZV
TAF
KZZV 041739Z 0418/0518 19008KT P6SM VCSH BKN040
     FM042200 24006KT 5SM -SHRA OVC035
     FM050200 VRB04KT 3SM -SHRA OVC015=

USA.gov is the U.S. government's official web portal to all federal, state and local government web resources and services.